• Join FlightAware (Why Join?)
  • Login
  • US Flag 
02:51PM EDT


 

Airport Tracker/Info


-or-


 

Live Flight TrackerFlight Track Log ✈ N507DM ✈ 02-May-2014 ✈ KSGJ - KSGJ

Flight Track Log - Related Links

Times and Time Zones

All times are in EDT time to prevent confusion due to time zone crossing. See the N507DM flight status page for this flight to view local times or setup timezone preferences in your user account.

Time Position Orientation Groundspeed Altitude Reporting Facility
EDT Latitude Longitude Course Direction KTS MPH feet Rate Location/Type
01:21PM 29.9736 -81.3725 311° West 82 94 1,000  Level Jacksonville Center
01:21PM 29.9842 -81.3867 311° West 89 102 1,400 720 Climbing Jacksonville Center
01:22PM 29.9989 -81.4081 308° West 68 78 2,300 660 Climbing Jacksonville Center
01:23PM 30.0139 -81.4269 313° West 86 99 2,800 420 Climbing Jacksonville Center
01:24PM 30.0328 -81.4506 313° West 89 102 3,300 480 Climbing Jacksonville Center
01:26PM 30.0519 -81.4744 313° West 90 104 3,900 300 Climbing Jacksonville Center
01:26PM 30.0586 -81.5006 286° West 106 122 4,000  Climbing Jacksonville Center
01:28PM 30.0714 -81.5292 297° West 99 114 4,000 -60 Level Jacksonville Center
01:29PM 30.0800 -81.5628 287° West 94 108 3,900  Descending Jacksonville Center
01:30PM 30.0908 -81.5867 298° West 89 102 4,000  Climbing Jacksonville Center
01:31PM 30.0994 -81.6178 288° West 95 109 4,000  Level Jacksonville Center
01:32PM 30.1039 -81.6464 280° West 95 109 4,000  Level Jacksonville Center
01:33PM 30.1103 -81.6753 284° West 93 107 4,000 -60 Level Jacksonville Center
01:34PM 30.1189 -81.7064 288° West 96 110 3,900  Descending Jacksonville Center
01:35PM 30.1297 -81.7303 298° West 90 104 4,000  Climbing Jacksonville Center
01:36PM 30.1425 -81.7564 300° West 92 106 4,000  Level Jacksonville Center
01:37PM 30.1531 -81.7828 295° West 92 106 4,000  Level Jacksonville Center
01:38PM 30.1722 -81.8067 313° West 98 113 4,000  Level Jacksonville Center
01:39PM 30.1869 -81.8281 309° West 102 117 4,000 -60 Level Jacksonville Center
01:39PM 30.1956 -81.8544 291° West 93 107 3,900  Descending Jacksonville Center
01:40PM 30.2083 -81.8806 300° West 90 104 4,000 -60 Climbing Jacksonville Center
01:41PM 30.2147 -81.9047 287° West 90 104 3,800 -480 Descending Jacksonville Center
01:43PM 30.2233 -81.9431 285° West 101 116 3,000 -720 Descending Jacksonville Center
01:43PM 30.2297 -81.9742 94° East 110 127 2,300 -540 Descending Jacksonville Center
01:45PM 30.2194 -81.8831 94° East  Level FlightAware Approximate
01:45PM 30.2281 -82.0056 266° West 106 122 2,000  Level Jacksonville Center
01:46PM 30.2178 -82.0344 248° West 98 113 1,900 -120 Descending Jacksonville Center
01:47PM 30.2364 -82.0247 24° Northeast 117 135 1,800 -60 Descending Jacksonville Center
01:47PM 30.2383 -81.9933 86° East 105 121 1,800 -600 Level Jacksonville Center
01:49PM 30.2275 -81.9575 109° East 98 113 700 -540 Descending Jacksonville Center
01:50PM 30.2211 -81.9333 107° East 81 93 700  Level Jacksonville Center
01:51PM 30.2167 -81.9047 100° East 88 101 700 120 Level Jacksonville Center
01:52PM 30.2103 -81.8806 107° East 83 96 1,000 360 Climbing Jacksonville Center
01:53PM 30.1956 -81.8519 121° Southeast 99 114 1,500 480 Climbing Jacksonville Center
01:54PM 30.1806 -81.8183 117° Southeast 102 117 2,100 480 Climbing Jacksonville Center
01:55PM 30.1719 -81.7944 113° Southeast 102 117 2,500 420 Climbing Jacksonville Center
01:56PM 30.1656 -81.7586 102° East 111 128 3,000 180 Climbing Jacksonville Center
01:57PM 30.1608 -81.7153 97° East 123 142 3,000 -60 Level Jacksonville Center
01:58PM 30.1583 -81.6794 95° East 118 136 2,900 -60 Descending Jacksonville Center
01:59PM 30.1561 -81.6458 94° East 119 137 2,900  Level Jacksonville Center
02:00PM 30.1536 -81.6050 94° East 122 140 3,000 60 Climbing Jacksonville Center
02:01PM 30.1531 -81.5689 91° East 116 133 3,100  Climbing Jacksonville Center
02:02PM 30.1800 -81.5469 35° Northeast 120 138 3,100 -60 Level Jacksonville Center
02:03PM 30.2114 -81.5536 350° North 108 124 3,000 -120 Descending Jacksonville Center
02:04PM 30.2367 -81.5703 330° Northwest 108 124 2,900  Descending Jacksonville Center
02:05PM 30.2639 -81.5867 333° Northwest 107 123 3,000  Climbing Jacksonville Center
02:06PM 30.2914 -81.6031 333° Northwest 105 121 3,000  Level Jacksonville Center
02:07PM 30.3186 -81.6244 326° Northwest 110 127 3,000  Level Jacksonville Center
02:08PM 30.3481 -81.6383 338° Northwest 106 122 3,100  Climbing Jacksonville Center
02:09PM 30.3711 -81.6550 328° Northwest 111 128 3,000 -60 Descending Jacksonville Center
02:10PM 30.3944 -81.6764 322° Northwest 103 119 3,000  Level Jacksonville Center
02:11PM 30.4258 -81.6833 349° North 116 133 3,000 -120 Level Jacksonville Center
02:12PM 30.4400 -81.6517 63° Northeast 123 142 2,800 -360 Descending Jacksonville Center
02:13PM 30.4250 -81.6206 119° Southeast 111 128 2,300 -420 Descending Jacksonville Center
02:14PM 30.4061 -81.5919 127° Southeast 105 121 2,000 -480 Descending Jacksonville Center
02:15PM 30.3850 -81.5706 139° Southeast 89 102 1,400 -600 Descending Jacksonville Center
02:16PM 30.3658 -81.5517 140° Southeast 88 101 800 -600 Descending Jacksonville Center
02:17PM 30.3492 -81.5325 135° Southeast 82 94 300 -240 Descending Jacksonville Center
02:19PM 30.3300 -81.5086 133° Southeast 82 94 300 60 Level Jacksonville Center
02:19PM 30.3236 -81.5042 149° Southeast 82 94 500 720 Climbing Jacksonville Center
02:20PM 30.3192 -81.4775 101° East 85 98 1,300 660 Climbing Jacksonville Center
02:21PM 30.3128 -81.4536 107° East 100 115 1,900 540 Climbing Jacksonville Center
02:22PM 30.2917 -81.4300 136° Southeast 94 108 2,500 480 Climbing Jacksonville Center
02:23PM 30.2703 -81.4061 136° Southeast 97 112 2,900 240 Climbing Jacksonville Center
02:24PM 30.2472 -81.3825 138° Southeast 111 128 3,000  Climbing Jacksonville Center
02:25PM 30.2258 -81.3564 133° Southeast 113 130 3,000  Level Jacksonville Center
02:26PM 30.2047 -81.3328 136° Southeast 109 125 3,000  Level Jacksonville Center
02:27PM 30.1794 -81.3139 147° Southeast 106 122 3,000  Level Jacksonville Center
02:28PM 30.1522 -81.3072 168° South 106 122 3,000 -60 Level Jacksonville Center
02:29PM 30.1250 -81.2981 164° South 104 120 2,900  Descending Jacksonville Center
02:30PM 30.0978 -81.2911 168° South 103 119 3,000  Climbing Jacksonville Center
02:31PM 30.0706 -81.2844 168° South 98 113 3,000  Level Jacksonville Center
02:32PM 30.0411 -81.2753 165° South 100 115 3,000 -180 Level Jacksonville Center
02:33PM 30.0158 -81.2542 144° Southeast 119 137 2,700 -480 Descending Jacksonville Center
02:34PM 29.9925 -81.2306 139° Southeast 110 127 2,100 -360 Descending Jacksonville Center
02:35PM 29.9717 -81.2142 146° Southeast 106 122 2,000 -60 Descending Jacksonville Center
02:36PM 29.9464 -81.1978 151° Southeast 105 121 2,000  Level Jacksonville Center
02:37PM 29.9189 -81.1767 146° Southeast 105 121 2,000 -60 Level Jacksonville Center
02:38PM 29.8914 -81.1581 150° Southeast 103 119 1,900  Descending Jacksonville Center
02:39PM 29.8728 -81.1728 214° Southwest 90 104 2,000  Climbing Jacksonville Center
02:40PM 29.8669 -81.2039 258° West 102 117 1,900  Descending Jacksonville Center
02:41PM 29.8861 -81.2278 313° West 110 127 2,000 -60 Climbing Jacksonville Center
02:42PM 29.8969 -81.2514 298° West 83 96 1,800 -360 Descending Jacksonville Center
02:43PM 29.9161 -81.2775 310° West 95 109 1,300 -480 Descending Jacksonville Center